Volga, Iowa
Current Conditions -  °F | °C
As of 10:15 PM on Monday 22 Dec 2014 (Local Time) from KOLZ Reporting Station
Moderate Fog Moderate Fog  
Wind Chill: 28°   Ceiling: 200
Heat Index: 36°   Visibility: 0.25mi
Dew Point: 36°   Wind: 12mph
Humidity: 100%   Direction: 70°ENE
Pressure: 29.51"   Gusts: NA
Location:  42.8°N, 91.54°W
Report Text: KOLZ 230415Z AUTO 07010KT 1/4SM FG OVC002 02/02 A2951 RMK AO2
Loading
Personal Weather Stations






























Interactive Weather Map New forecast layout! Learn more

10-Day Weather Forecast

Advertisements
Track Severe Weather on mobile